sensor_id;sensor_type;location;lat;lon;timestamp;pressure;altitude;pressure_sealevel;temperature;humidity
74573;BME280;63071;51.526;-0.134;2023-04-01T00:00:44;99400.91;;;23.24;38.31
74573;BME280;63071;51.526;-0.134;2023-04-01T00:03:10;99412.34;;;23.24;38.37
74573;BME280;63071;51.526;-0.134;2023-04-01T00:05:35;99410.81;;;23.23;38.19
74573;BME280;63071;51.526;-0.134;2023-04-01T00:08:01;99406.66;;;23.22;38.19
74573;BME280;63071;51.526;-0.134;2023-04-01T00:10:26;99414.63;;;23.22;38.31
74573;BME280;63071;51.526;-0.134;2023-04-01T00:12:52;99421.88;;;23.22;38.23
74573;BME280;63071;51.526;-0.134;2023-04-01T00:15:17;99415.81;;;23.17;38.62
74573;BME280;63071;51.526;-0.134;2023-04-01T00:17:43;99427.63;;;23.20;38.02
74573;BME280;63071;51.526;-0.134;2023-04-01T00:20:09;99433.31;;;23.22;38.22
74573;BME280;63071;51.526;-0.134;2023-04-01T00:22:34;99429.13;;;23.21;38.20
74573;BME280;63071;51.526;-0.134;2023-04-01T00:25:00;99423.78;;;23.21;38.14
74573;BME280;63071;51.526;-0.134;2023-04-01T00:27:26;99421.13;;;23.21;38.20
74573;BME280;63071;51.526;-0.134;2023-04-01T00:29:53;99432.56;;;23.22;38.30
74573;BME280;63071;51.526;-0.134;2023-04-01T00:32:18;99433.00;;;23.16;38.28
74573;BME280;63071;51.526;-0.134;2023-04-01T00:34:43;99444.34;;;23.20;38.05
74573;BME280;63071;51.526;-0.134;2023-04-01T00:37:09;99441.69;;;23.20;38.11
74573;BME280;63071;51.526;-0.134;2023-04-01T00:39:35;99445.53;;;23.19;38.21
74573;BME280;63071;51.526;-0.134;2023-04-01T00:42:02;99442.09;;;23.19;38.21
74573;BME280;63071;51.526;-0.134;2023-04-01T00:44:33;99446.66;;;23.18;38.24
74573;BME280;63071;51.526;-0.134;2023-04-01T00:47:00;99450.84;;;23.19;38.21
74573;BME280;63071;51.526;-0.134;2023-04-01T00:49:32;99460.75;;;23.19;38.19
74573;BME280;63071;51.526;-0.134;2023-04-01T00:52:02;99456.94;;;23.20;37.91
74573;BME280;63071;51.526;-0.134;2023-04-01T00:54:31;99461.91;;;23.18;38.36
74573;BME280;63071;51.526;-0.134;2023-04-01T00:57:08;99485.50;;;23.19;38.11
74573;BME280;63071;51.526;-0.134;2023-04-01T00:59:46;99480.19;;;23.19;38.31
74573;BME280;63071;51.526;-0.134;2023-04-01T01:02:15;99488.19;;;23.19;37.95
74573;BME280;63071;51.526;-0.134;2023-04-01T01:04:41;99484.72;;;23.19;38.07
74573;BME280;63071;51.526;-0.134;2023-04-01T01:07:27;99487.41;;;23.19;38.07
74573;BME280;63071;51.526;-0.134;2023-04-01T01:10:06;99487.78;;;23.17;38.26
74573;BME280;63071;51.526;-0.134;2023-04-01T01:12:46;99491.22;;;23.18;38.00
74573;BME280;63071;51.526;-0.134;2023-04-01T01:15:58;99496.22;;;23.16;38.17
74573;BME280;63071;51.526;-0.134;2023-04-01T01:18:09;99498.88;;;23.16;38.01
74573;BME280;63071;51.526;-0.134;2023-04-01T01:37:39;99517.53;;;23.16;37.91
74573;BME280;63071;51.526;-0.134;2023-04-01T01:40:09;99522.09;;;23.15;37.81
74573;BME280;63071;51.526;-0.134;2023-04-01T01:42:41;99516.00;;;23.15;37.83
74573;BME280;63071;51.526;-0.134;2023-04-01T01:45:10;99528.59;;;23.14;37.89
74573;BME280;63071;51.526;-0.134;2023-04-01T01:47:40;99530.09;;;23.15;37.85
74573;BME280;63071;51.526;-0.134;2023-04-01T01:50:09;99532.75;;;23.15;37.90
74573;BME280;63071;51.526;-0.134;2023-04-01T01:52:35;99537.31;;;23.15;38.01
74573;BME280;63071;51.526;-0.134;2023-04-01T01:55:01;99538.50;;;23.14;37.90
74573;BME280;63071;51.526;-0.134;2023-04-01T01:57:32;99546.88;;;23.12;38.01
74573;BME280;63071;51.526;-0.134;2023-04-01T02:00:06;99536.59;;;23.14;37.88
74573;BME280;63071;51.526;-0.134;2023-04-01T02:02:40;99544.97;;;23.13;37.76
74573;BME280;63071;51.526;-0.134;2023-04-01T02:05:11;99552.97;;;23.13;37.99
74573;BME280;63071;51.526;-0.134;2023-04-01T02:07:46;99561.31;;;23.15;37.77
74573;BME280;63071;51.526;-0.134;2023-04-01T02:10:14;99565.16;;;23.14;37.70
74573;BME280;63071;51.526;-0.134;2023-04-01T02:12:44;99564.78;;;23.12;37.64
74573;BME280;63071;51.526;-0.134;2023-04-01T02:15:14;99562.50;;;23.14;37.95
74573;BME280;63071;51.526;-0.134;2023-04-01T02:17:46;99569.72;;;23.13;37.94
74573;BME280;63071;51.526;-0.134;2023-04-01T02:20:19;99572.38;;;23.13;37.55
74573;BME280;63071;51.526;-0.134;2023-04-01T02:22:52;99576.94;;;23.13;37.69
74573;BME280;63071;51.526;-0.134;2023-04-01T02:25:23;99578.47;;;23.14;37.76
74573;BME280;63071;51.526;-0.134;2023-04-01T02:27:51;99582.28;;;23.13;37.91
74573;BME280;63071;51.526;-0.134;2023-04-01T02:30:18;99579.63;;;23.13;37.88
74573;BME280;63071;51.526;-0.134;2023-04-01T02:32:44;99583.84;;;23.10;37.61
74573;BME280;63071;51.526;-0.134;2023-04-01T02:35:13;99580.44;;;23.10;37.69
74573;BME280;63071;51.526;-0.134;2023-04-01T02:37:42;99589.91;;;23.11;37.63
74573;BME280;63071;51.526;-0.134;2023-04-01T02:40:11;99590.31;;;23.09;37.63
74573;BME280;63071;51.526;-0.134;2023-04-01T02:42:38;99598.66;;;23.11;37.59
74573;BME280;63071;51.526;-0.134;2023-04-01T02:45:05;99594.09;;;23.12;37.57
74573;BME280;63071;51.526;-0.134;2023-04-01T02:47:31;99603.63;;;23.09;37.56
74573;BME280;63071;51.526;-0.134;2023-04-01T02:49:57;99600.59;;;23.07;37.63
74573;BME280;63071;51.526;-0.134;2023-04-01T02:52:24;99608.25;;;23.05;37.40
74573;BME280;63071;51.526;-0.134;2023-04-01T02:54:50;99610.53;;;23.07;37.61
74573;BME280;63071;51.526;-0.134;2023-04-01T02:57:16;99610.53;;;23.07;37.78
74573;BME280;63071;51.526;-0.134;2023-04-01T02:59:41;99605.19;;;23.07;37.54
74573;BME280;63071;51.526;-0.134;2023-04-01T03:02:06;99611.28;;;23.07;37.56
74573;BME280;63071;51.526;-0.134;2023-04-01T03:04:32;99611.28;;;23.07;37.64
74573;BME280;63071;51.526;-0.134;2023-04-01T03:06:58;99621.19;;;23.07;37.47
74573;BME280;63071;51.526;-0.134;2023-04-01T03:09:23;99624.59;;;23.07;37.56
74573;BME280;63071;51.526;-0.134;2023-04-01T03:11:49;99625.38;;;23.08;37.46
74573;BME280;63071;51.526;-0.134;2023-04-01T03:14:14;99626.50;;;23.07;37.42
74573;BME280;63071;51.526;-0.134;2023-04-01T03:16:40;99626.50;;;23.07;37.62
74573;BME280;63071;51.526;-0.134;2023-04-01T03:19:05;99626.13;;;23.08;37.49
74573;BME280;63071;51.526;-0.134;2023-04-01T03:21:31;99632.19;;;23.09;37.54
74573;BME280;63071;51.526;-0.134;2023-04-01T03:23:56;99636.41;;;23.10;37.34
74573;BME280;63071;51.526;-0.134;2023-04-01T03:26:22;99634.50;;;23.07;37.29
74573;BME280;63071;51.526;-0.134;2023-04-01T03:28:48;99638.34;;;23.06;37.32
74573;BME280;63071;51.526;-0.134;2023-04-01T03:31:13;99637.97;;;23.04;37.85
74573;BME280;63071;51.526;-0.134;2023-04-01T03:33:41;99637.97;;;23.04;37.46
74573;BME280;63071;51.526;-0.134;2023-04-01T03:36:07;99640.22;;;23.05;37.61
74573;BME280;63071;51.526;-0.134;2023-04-01T03:38:34;99634.91;;;23.05;37.51
74573;BME280;63071;51.526;-0.134;2023-04-01T03:41:00;99647.47;;;23.05;37.50
74573;BME280;63071;51.526;-0.134;2023-04-01T03:43:25;99655.47;;;23.05;37.33
74573;BME280;63071;51.526;-0.134;2023-04-01T03:45:52;99657.38;;;23.04;37.22
74573;BME280;63071;51.526;-0.134;2023-04-01T03:48:18;99654.72;;;23.04;37.40
74573;BME280;63071;51.526;-0.134;2023-04-01T03:50:44;99662.72;;;23.04;37.34
74573;BME280;63071;51.526;-0.134;2023-04-01T03:53:10;99660.03;;;23.04;37.38
74573;BME280;63071;51.526;-0.134;2023-04-01T03:55:37;99663.84;;;23.03;37.36
74573;BME280;63071;51.526;-0.134;2023-04-01T03:58:04;99674.13;;;23.01;37.16
74573;BME280;63071;51.526;-0.134;2023-04-01T04:00:30;99666.19;;;22.97;37.03
74573;BME280;63071;51.526;-0.134;2023-04-01T04:02:56;99664.28;;;22.94;36.96
74573;BME280;63071;51.526;-0.134;2023-04-01T04:05:23;99668.47;;;22.95;37.30
74573;BME280;63071;51.526;-0.134;2023-04-01T04:07:49;99677.97;;;22.96;37.27
74573;BME280;63071;51.526;-0.134;2023-04-01T04:10:15;99675.31;;;22.96;37.28
74573;BME280;63071;51.526;-0.134;2023-04-01T04:12:40;99684.03;;;22.97;37.28
74573;BME280;63071;51.526;-0.134;2023-04-01T04:15:07;99698.16;;;22.97;37.33
74573;BME280;63071;51.526;-0.134;2023-04-01T04:17:32;99680.25;;;22.98;37.41
74573;BME280;63071;51.526;-0.134;2023-04-01T04:19:58;99697.75;;;22.99;37.45
74573;BME280;63071;51.526;-0.134;2023-04-01T04:22:23;99695.84;;;22.99;37.37
74573;BME280;63071;51.526;-0.134;2023-04-01T04:24:49;99701.19;;;22.99;36.85
74573;BME280;63071;51.526;-0.134;2023-04-01T04:27:14;99706.09;;;23.01;37.18
74573;BME280;63071;51.526;-0.134;2023-04-01T04:29:40;99708.41;;;22.99;37.20
74573;BME280;63071;51.526;-0.134;2023-04-01T04:32:05;99716.38;;;22.99;37.01
74573;BME280;63071;51.526;-0.134;2023-04-01T04:34:31;99713.34;;;23.00;36.96
74573;BME280;63071;51.526;-0.134;2023-04-01T04:36:56;99714.91;;;23.02;36.98
74573;BME280;63071;51.526;-0.134;2023-04-01T04:39:22;99714.09;;;23.01;37.25
74573;BME280;63071;51.526;-0.134;2023-04-01T04:41:48;99707.25;;;23.00;37.03
74573;BME280;63071;51.526;-0.134;2023-04-01T04:44:13;99719.84;;;22.99;37.13
74573;BME280;63071;51.526;-0.134;2023-04-01T04:46:39;99717.91;;;23.00;37.22
74573;BME280;63071;51.526;-0.134;2023-04-01T04:49:05;99718.66;;;23.00;37.04
74573;BME280;63071;51.526;-0.134;2023-04-01T04:51:31;99722.50;;;22.99;37.25
74573;BME280;63071;51.526;-0.134;2023-04-01T04:54:00;99723.25;;;23.00;36.99
74573;BME280;63071;51.526;-0.134;2023-04-01T04:56:25;99718.31;;;22.98;37.16
74573;BME280;63071;51.526;-0.134;2023-04-01T04:58:51;99724.78;;;22.97;37.10
74573;BME280;63071;51.526;-0.134;2023-04-01T05:01:18;99727.47;;;22.97;37.04
74573;BME280;63071;51.526;-0.134;2023-04-01T05:03:44;99727.84;;;22.96;36.81
74573;BME280;63071;51.526;-0.134;2023-04-01T05:06:12;99730.13;;;22.97;37.13
74573;BME280;63071;51.526;-0.134;2023-04-01T05:08:38;99740.78;;;22.97;36.83
74573;BME280;63071;51.526;-0.134;2023-04-01T05:11:07;99746.88;;;22.94;37.07
74573;BME280;63071;51.526;-0.134;2023-04-01T05:13:36;99751.47;;;22.94;36.74
74573;BME280;63071;51.526;-0.134;2023-04-01T05:16:02;99754.50;;;22.92;36.97
74573;BME280;63071;51.526;-0.134;2023-04-01T05:18:27;99758.72;;;22.93;36.84
74573;BME280;63071;51.526;-0.134;2023-04-01T05:20:54;99759.84;;;22.92;36.66
74573;BME280;63071;51.526;-0.134;2023-04-01T05:23:22;99761.75;;;22.92;36.89
74573;BME280;63071;51.526;-0.134;2023-04-01T05:25:48;99765.91;;;22.93;36.87
74573;BME280;63071;51.526;-0.134;2023-04-01T05:28:15;99771.25;;;22.93;36.84
74573;BME280;63071;51.526;-0.134;2023-04-01T05:30:41;99770.50;;;22.92;36.95
74573;BME280;63071;51.526;-0.134;2023-04-01T05:33:07;99770.13;;;22.90;36.46
74573;BME280;63071;51.526;-0.134;2023-04-01T05:35:33;99774.31;;;22.91;36.84
74573;BME280;63071;51.526;-0.134;2023-04-01T05:37:58;99774.72;;;22.90;36.60
74573;BME280;63071;51.526;-0.134;2023-04-01T05:40:24;99767.50;;;22.87;37.09
74573;BME280;63071;51.526;-0.134;2023-04-01T05:42:49;99773.97;;;22.86;36.87
74573;BME280;63071;51.526;-0.134;2023-04-01T05:45:15;99777.03;;;22.84;36.75
74573;BME280;63071;51.526;-0.134;2023-04-01T05:47:41;99788.06;;;22.86;36.88
74573;BME280;63071;51.526;-0.134;2023-04-01T05:50:08;99785.78;;;22.85;36.69
74573;BME280;63071;51.526;-0.134;2023-04-01T05:52:34;99801.00;;;22.88;36.70
74573;BME280;63071;51.526;-0.134;2023-04-01T05:54:59;99796.41;;;22.88;36.90
74573;BME280;63071;51.526;-0.134;2023-04-01T05:57:26;99799.81;;;22.89;36.69
74573;BME280;63071;51.526;-0.134;2023-04-01T05:59:51;99805.16;;;22.89;36.68
74573;BME280;63071;51.526;-0.134;2023-04-01T06:02:17;99812.41;;;22.88;36.77
74573;BME280;63071;51.526;-0.134;2023-04-01T06:04:44;99812.75;;;22.90;36.65
74573;BME280;63071;51.526;-0.134;2023-04-01T06:07:15;99811.66;;;22.88;36.61
74573;BME280;63071;51.526;-0.134;2023-04-01T06:09:43;99813.94;;;22.89;36.69
74573;BME280;63071;51.526;-0.134;2023-04-01T06:15:24;99820.78;;;22.87;36.53
74573;BME280;63071;51.526;-0.134;2023-04-01T06:20:27;99836.81;;;22.79;36.97
74573;BME280;63071;51.526;-0.134;2023-04-01T06:23:19;99836.06;;;22.79;36.78
74573;BME280;63071;51.526;-0.134;2023-04-01T06:29:02;99841.78;;;22.77;36.50
74573;BME280;63071;51.526;-0.134;2023-04-01T06:36:54;99849.38;;;22.79;36.76
74573;BME280;63071;51.526;-0.134;2023-04-01T06:43:10;99846.72;;;22.79;36.37
74573;BME280;63071;51.526;-0.134;2023-04-01T06:48:27;99847.50;;;22.69;36.79
74573;BME280;63071;51.526;-0.134;2023-04-01T06:51:21;99858.16;;;22.69;36.82
74573;BME280;63071;51.526;-0.134;2023-04-01T06:56:29;99866.13;;;22.76;36.49
74573;BME280;63071;51.526;-0.134;2023-04-01T06:59:04;99858.13;;;22.79;36.54
74573;BME280;63071;51.526;-0.134;2023-04-01T07:01:52;99871.44;;;22.79;36.62
74573;BME280;63071;51.526;-0.134;2023-04-01T07:04:31;99868.41;;;22.81;36.62
74573;BME280;63071;51.526;-0.134;2023-04-01T07:07:02;99877.91;;;22.75;36.30
74573;BME280;63071;51.526;-0.134;2023-04-01T07:09:38;99867.28;;;22.71;36.58
74573;BME280;63071;51.526;-0.134;2023-04-01T07:15:20;99874.13;;;22.69;36.38
74573;BME280;63071;51.526;-0.134;2023-04-01T07:17:54;99895.06;;;22.77;36.72
74573;BME280;63071;51.526;-0.134;2023-04-01T07:20:32;99892.38;;;22.77;36.17
74573;BME280;63071;51.526;-0.134;2023-04-01T07:23:03;99895.44;;;22.79;36.57
74573;BME280;63071;51.526;-0.134;2023-04-01T07:25:50;99905.28;;;22.83;36.51
74573;BME280;63071;51.526;-0.134;2023-04-01T07:28:17;99904.53;;;22.82;36.39
74573;BME280;63071;51.526;-0.134;2023-04-01T07:36:30;99918.66;;;22.79;36.47
74573;BME280;63071;51.526;-0.134;2023-04-01T07:39:24;99919.41;;;22.79;36.17
74573;BME280;63071;51.526;-0.134;2023-04-01T07:42:01;99930.44;;;22.82;36.41
74573;BME280;63071;51.526;-0.134;2023-04-01T07:52:58;99939.97;;;22.72;36.58
74573;BME280;63071;51.526;-0.134;2023-04-01T07:55:43;99954.41;;;22.71;36.16
74573;BME280;63071;51.526;-0.134;2023-04-01T08:01:13;99954.41;;;22.71;36.09
74573;BME280;63071;51.526;-0.134;2023-04-01T08:06:36;99964.69;;;22.69;36.47
74573;BME280;63071;51.526;-0.134;2023-04-01T08:15:02;99972.69;;;22.72;36.11
74573;BME280;63071;51.526;-0.134;2023-04-01T08:20:59;99974.22;;;22.73;36.13
74573;BME280;63071;51.526;-0.134;2023-04-01T08:23:38;99976.09;;;22.73;36.18
74573;BME280;63071;51.526;-0.134;2023-04-01T08:26:26;99984.09;;;22.73;36.35
74573;BME280;63071;51.526;-0.134;2023-04-01T08:34:32;99987.13;;;22.75;36.04
74573;BME280;63071;51.526;-0.134;2023-04-01T08:37:14;99999.72;;;22.74;36.14
74573;BME280;63071;51.526;-0.134;2023-04-01T08:40:02;100005.03;;;22.74;36.42
74573;BME280;63071;51.526;-0.134;2023-04-01T09:05:18;100034.72;;;22.76;36.06
74573;BME280;63071;51.526;-0.134;2023-04-01T09:08:07;100037.75;;;22.78;36.14
74573;BME280;63071;51.526;-0.134;2023-04-01T09:13:25;100044.25;;;22.81;35.89
74573;BME280;63071;51.526;-0.134;2023-04-01T09:16:08;100052.22;;;22.81;35.99
74573;BME280;63071;51.526;-0.134;2023-04-01T09:24:33;100054.53;;;22.79;35.88
74573;BME280;63071;51.526;-0.134;2023-04-01T09:27:27;100067.44;;;22.80;35.94
74573;BME280;63071;51.526;-0.134;2023-04-01T09:46:30;100074.31;;;22.78;35.97
74573;BME280;63071;51.526;-0.134;2023-04-01T10:23:24;100143.19;;;22.72;36.07
74573;BME280;63071;51.526;-0.134;2023-04-01T10:31:35;100142.06;;;22.70;35.67
74573;BME280;63071;51.526;-0.134;2023-04-01T10:34:19;100150.03;;;22.70;35.72
74573;BME280;63071;51.526;-0.134;2023-04-01T10:36:59;100152.72;;;22.70;35.94
74573;BME280;63071;51.526;-0.134;2023-04-01T10:39:37;100148.88;;;22.71;35.79
74573;BME280;63071;51.526;-0.134;2023-04-01T10:48:20;100167.91;;;22.73;35.55
74573;BME280;63071;51.526;-0.134;2023-04-01T10:53:38;100178.19;;;22.71;35.93
74573;BME280;63071;51.526;-0.134;2023-04-01T11:19:46;100207.88;;;22.76;39.10
74573;BME280;63071;51.526;-0.134;2023-04-01T11:25:29;100215.13;;;22.76;36.64
74573;BME280;63071;51.526;-0.134;2023-04-01T11:28:18;100220.78;;;22.56;37.02
74573;BME280;63071;51.526;-0.134;2023-04-01T11:31:33;100218.91;;;22.60;38.56
74573;BME280;63071;51.526;-0.134;2023-04-01T11:34:24;100219.63;;;22.39;36.85
74573;BME280;63071;51.526;-0.134;2023-04-01T11:37:10;100219.94;;;22.24;37.51
74573;BME280;63071;51.526;-0.134;2023-04-01T11:43:06;100224.94;;;22.39;36.22
74573;BME280;63071;51.526;-0.134;2023-04-01T11:45:43;100230.66;;;22.42;35.86
74573;BME280;63071;51.526;-0.134;2023-04-01T11:48:32;100242.47;;;22.48;36.09
74573;BME280;63071;51.526;-0.134;2023-04-01T11:57:35;100248.56;;;22.45;36.78
74573;BME280;63071;51.526;-0.134;2023-04-01T12:05:58;100262.13;;;22.21;35.97
74573;BME280;63071;51.526;-0.134;2023-04-01T12:08:37;100268.16;;;22.11;35.95
74573;BME280;63071;51.526;-0.134;2023-04-01T12:14:09;100264.41;;;22.19;35.16
74573;BME280;63071;51.526;-0.134;2023-04-01T12:19:28;100263.59;;;22.05;35.65
74573;BME280;63071;51.526;-0.134;2023-04-01T12:22:21;100282.63;;;22.14;35.63
74573;BME280;63071;51.526;-0.134;2023-04-01T12:32:49;100294.88;;;22.26;35.15
74573;BME280;63071;51.526;-0.134;2023-04-01T12:35:53;100300.97;;;22.30;35.95
74573;BME280;63071;51.526;-0.134;2023-04-01T12:38:27;100299.13;;;22.41;34.90
74573;BME280;63071;51.526;-0.134;2023-04-01T12:41:22;100312.84;;;22.43;34.13
74573;BME280;63071;51.526;-0.134;2023-04-01T12:44:03;100320.75;;;22.25;34.64
74573;BME280;63071;51.526;-0.134;2023-04-01T12:58:03;100342.56;;;22.56;34.71
74573;BME280;63071;51.526;-0.134;2023-04-01T13:03:54;100344.94;;;22.79;34.54
74573;BME280;63071;51.526;-0.134;2023-04-01T13:06:30;100336.19;;;22.82;35.30
74573;BME280;63071;51.526;-0.134;2023-04-01T13:14:44;100345.72;;;22.90;34.58
74573;BME280;63071;51.526;-0.134;2023-04-01T13:20:41;100346.47;;;22.94;34.29
74573;BME280;63071;51.526;-0.134;2023-04-01T13:36:40;100367.41;;;22.85;34.59
74573;BME280;63071;51.526;-0.134;2023-04-01T13:42:09;100382.25;;;22.79;34.31
74573;BME280;63071;51.526;-0.134;2023-04-01T13:45:15;100378.41;;;22.80;34.06
74573;BME280;63071;51.526;-0.134;2023-04-01T13:56:04;100402.81;;;22.86;33.98
74573;BME280;63071;51.526;-0.134;2023-04-01T13:58:49;100407.38;;;22.85;33.91
74573;BME280;63071;51.526;-0.134;2023-04-01T14:01:41;100409.25;;;22.85;33.61
74573;BME280;63071;51.526;-0.134;2023-04-01T14:04:34;100421.47;;;22.86;34.21
74573;BME280;63071;51.526;-0.134;2023-04-01T14:07:32;100422.59;;;22.88;33.67
74573;BME280;63071;51.526;-0.134;2023-04-01T14:15:18;100433.28;;;22.92;33.79
74573;BME280;63071;51.526;-0.134;2023-04-01T14:18:13;100427.94;;;22.88;34.04
74573;BME280;63071;51.526;-0.134;2023-04-01T14:21:28;100434.41;;;22.87;33.87
74573;BME280;63071;51.526;-0.134;2023-04-01T14:24:20;100437.81;;;22.84;34.05
74573;BME280;63071;51.526;-0.134;2023-04-01T14:27:14;100437.44;;;22.82;33.78
74573;BME280;63071;51.526;-0.134;2023-04-01T14:30:20;100451.50;;;22.83;33.95
74573;BME280;63071;51.526;-0.134;2023-04-01T14:38:02;100467.09;;;22.77;34.08
74573;BME280;63071;51.526;-0.134;2023-04-01T14:43:28;100462.16;;;22.75;34.11
74573;BME280;63071;51.526;-0.134;2023-04-01T14:49:01;100476.25;;;22.79;33.91
74573;BME280;63071;51.526;-0.134;2023-04-01T14:56:40;100494.50;;;22.77;34.08
74573;BME280;63071;51.526;-0.134;2023-04-01T15:10:40;100507.47;;;22.83;34.04
74573;BME280;63071;51.526;-0.134;2023-04-01T15:13:15;100515.09;;;22.84;33.83
74573;BME280;63071;51.526;-0.134;2023-04-01T15:21:36;100525.72;;;22.77;33.90
74573;BME280;63071;51.526;-0.134;2023-04-01T15:26:39;100526.47;;;22.77;33.68
74573;BME280;63071;51.526;-0.134;2023-04-01T15:47:36;100578.94;;;22.70;34.07
74573;BME280;63071;51.526;-0.134;2023-04-01T15:50:31;100577.00;;;22.67;33.65
74573;BME280;63071;51.526;-0.134;2023-04-01T15:59:00;100590.34;;;22.67;33.77
74573;BME280;63071;51.526;-0.134;2023-04-01T16:01:48;100593.00;;;22.67;33.55
74573;BME280;63071;51.526;-0.134;2023-04-01T16:26:03;100632.91;;;22.59;33.89
74573;BME280;63071;51.526;-0.134;2023-04-01T16:28:37;100635.59;;;22.59;33.99
74573;BME280;63071;51.526;-0.134;2023-04-01T16:31:15;100637.09;;;22.60;33.88
74573;BME280;63071;51.526;-0.134;2023-04-01T16:33:58;100648.53;;;22.61;33.43
74573;BME280;63071;51.526;-0.134;2023-04-01T16:36:48;100632.88;;;22.56;34.04
74573;BME280;63071;51.526;-0.134;2023-04-01T16:47:19;100665.69;;;22.64;33.74
74573;BME280;63071;51.526;-0.134;2023-04-01T16:49:58;100669.47;;;22.63;33.49
74573;BME280;63071;51.526;-0.134;2023-04-01T16:52:58;100673.28;;;22.62;33.24
74573;BME280;63071;51.526;-0.134;2023-04-01T16:55:50;100680.88;;;22.59;33.64
74573;BME280;63071;51.526;-0.134;2023-04-01T16:58:35;100696.09;;;22.59;33.47
74573;BME280;63071;51.526;-0.134;2023-04-01T17:01:11;100689.97;;;22.58;33.29
74573;BME280;63071;51.526;-0.134;2023-04-01T17:03:52;100697.56;;;22.56;33.06
74573;BME280;63071;51.526;-0.134;2023-04-01T17:06:45;100688.47;;;22.57;33.84
74573;BME280;63071;51.526;-0.134;2023-04-01T17:09:36;100691.13;;;22.57;33.51
74573;BME280;63071;51.526;-0.134;2023-04-01T17:20:25;100709.06;;;22.64;33.55
74573;BME280;63071;51.526;-0.134;2023-04-01T17:28:46;100719.00;;;22.67;33.59
74573;BME280;63071;51.526;-0.134;2023-04-01T17:31:31;100728.50;;;22.68;33.44
74573;BME280;63071;51.526;-0.134;2023-04-01T17:45:04;100754.72;;;22.63;33.16
74573;BME280;63071;51.526;-0.134;2023-04-01T17:47:41;100752.84;;;22.63;33.15
74573;BME280;63071;51.526;-0.134;2023-04-01T17:58:30;100773.41;;;22.66;33.27
74573;BME280;63071;51.526;-0.134;2023-04-01T18:21:47;100808.31;;;22.57;32.94
74573;BME280;63071;51.526;-0.134;2023-04-01T18:27:04;100831.53;;;22.57;32.98
74573;BME280;63071;51.526;-0.134;2023-04-01T18:29:40;100838.38;;;22.58;33.25
74573;BME280;63071;51.526;-0.134;2023-04-01T18:32:17;100835.72;;;22.58;33.09
74573;BME280;63071;51.526;-0.134;2023-04-01T18:37:34;100853.63;;;22.57;33.09
74573;BME280;63071;51.526;-0.134;2023-04-01T18:40:28;100859.69;;;22.58;33.22
74573;BME280;63071;51.526;-0.134;2023-04-01T18:43:01;100864.97;;;22.54;32.99
74573;BME280;63071;51.526;-0.134;2023-04-01T18:53:22;100892.66;;;22.46;33.08
74573;BME280;63071;51.526;-0.134;2023-04-01T18:55:56;100894.59;;;22.49;33.32
74573;BME280;63071;51.526;-0.134;2023-04-01T18:58:42;100908.34;;;22.51;33.54
74573;BME280;63071;51.526;-0.134;2023-04-01T19:04:09;100909.84;;;22.52;33.24
74573;BME280;63071;51.526;-0.134;2023-04-01T19:06:48;100909.09;;;22.52;33.50
74573;BME280;63071;51.526;-0.134;2023-04-01T19:09:18;100923.19;;;22.52;33.14
74573;BME280;63071;51.526;-0.134;2023-04-01T19:12:08;100923.56;;;22.51;33.29
74573;BME280;63071;51.526;-0.134;2023-04-01T19:15:09;100930.34;;;22.48;33.64
74573;BME280;63071;51.526;-0.134;2023-04-01T19:20:34;100946.31;;;22.45;33.14
74573;BME280;63071;51.526;-0.134;2023-04-01T19:26:01;100947.38;;;22.40;33.19
74573;BME280;63071;51.526;-0.134;2023-04-01T19:37:46;100956.16;;;22.44;33.59
74573;BME280;63071;51.526;-0.134;2023-04-01T19:40:37;100972.16;;;22.44;33.17
74573;BME280;63071;51.526;-0.134;2023-04-01T19:43:44;100975.94;;;22.43;33.65
74573;BME280;63071;51.526;-0.134;2023-04-01T19:46:40;100971.31;;;22.40;33.16
74573;BME280;63071;51.526;-0.134;2023-04-01T19:52:33;101004.50;;;22.43;33.30
74573;BME280;63071;51.526;-0.134;2023-04-01T20:00:47;101008.72;;;22.47;33.41
74573;BME280;63071;51.526;-0.134;2023-04-01T20:11:16;101031.16;;;22.46;33.57
74573;BME280;63071;51.526;-0.134;2023-04-01T20:16:49;101026.91;;;22.42;33.48
74573;BME280;63071;51.526;-0.134;2023-04-01T20:24:52;101048.16;;;22.38;33.37
74573;BME280;63071;51.526;-0.134;2023-04-01T20:27:29;101059.59;;;22.38;33.88
74573;BME280;63071;51.526;-0.134;2023-04-01T20:33:26;101063.72;;;22.36;33.33
74573;BME280;63071;51.526;-0.134;2023-04-01T20:43:57;101093.81;;;22.36;33.71
74573;BME280;63071;51.526;-0.134;2023-04-01T20:46:35;101099.53;;;22.38;33.40
74573;BME280;63071;51.526;-0.134;2023-04-01T20:49:30;101094.22;;;22.38;33.86
74573;BME280;63071;51.526;-0.134;2023-04-01T20:54:50;101113.63;;;22.39;33.33
74573;BME280;63071;51.526;-0.134;2023-04-01T21:05:34;101121.53;;;22.35;33.83
74573;BME280;63071;51.526;-0.134;2023-04-01T21:19:08;101144.75;;;22.35;33.54
74573;BME280;63071;51.526;-0.134;2023-04-01T21:22:14;101141.31;;;22.34;33.82
74573;BME280;63071;51.526;-0.134;2023-04-01T21:30:30;101149.34;;;22.38;33.38
74573;BME280;63071;51.526;-0.134;2023-04-01T21:33:23;101162.66;;;22.38;33.10
74573;BME280;63071;51.526;-0.134;2023-04-01T21:47:25;101185.13;;;22.37;33.56
74573;BME280;63071;51.526;-0.134;2023-04-01T22:07:12;101213.66;;;22.36;33.23
74573;BME280;63071;51.526;-0.134;2023-04-01T22:12:37;101221.56;;;22.33;33.53
74573;BME280;63071;51.526;-0.134;2023-04-01T22:18:03;101230.59;;;22.28;33.50
74573;BME280;63071;51.526;-0.134;2023-04-01T22:20:48;101236.69;;;22.29;33.00
74573;BME280;63071;51.526;-0.134;2023-04-01T22:23:39;101234.03;;;22.29;33.09
74573;BME280;63071;51.526;-0.134;2023-04-01T22:26:19;101240.47;;;22.28;32.98
74573;BME280;63071;51.526;-0.134;2023-04-01T22:31:28;101233.09;;;22.21;33.16
74573;BME280;63071;51.526;-0.134;2023-04-01T22:39:14;101251.13;;;22.28;33.02
74573;BME280;63071;51.526;-0.134;2023-04-01T22:44:29;101261.00;;;22.27;32.94
74573;BME280;63071;51.526;-0.134;2023-04-01T22:49:51;101266.25;;;22.24;33.15
74573;BME280;63071;51.526;-0.134;2023-04-01T22:52:31;101274.66;;;22.26;32.97